sensor_id;sensor_type;location;lat;lon;timestamp;P1;durP1;ratioP1;P2;durP2;ratioP2
26191;SDS011;13935;55.672;37.764;2023-02-28T00:37:13;19.15;;;8.90;;
26191;SDS011;13935;55.672;37.764;2023-02-28T00:38:22;22.73;;;10.57;;
26191;SDS011;13935;55.672;37.764;2023-02-28T00:40:47;22.27;;;9.48;;
26191;SDS011;13935;55.672;37.764;2023-02-28T00:41:56;20.23;;;10.48;;
26191;SDS011;13935;55.672;37.764;2023-02-28T00:43:07;23.75;;;10.27;;
26191;SDS011;13935;55.672;37.764;2023-02-28T00:44:25;23.30;;;10.55;;
26191;SDS011;13935;55.672;37.764;2023-02-28T00:45:35;21.08;;;10.77;;
26191;SDS011;13935;55.672;37.764;2023-02-28T00:46:47;20.42;;;9.88;;
26191;SDS011;13935;55.672;37.764;2023-02-28T01:12:23;22.67;;;10.85;;
26191;SDS011;13935;55.672;37.764;2023-02-28T01:13:35;24.80;;;11.15;;
26191;SDS011;13935;55.672;37.764;2023-02-28T01:14:41;22.38;;;10.93;;
26191;SDS011;13935;55.672;37.764;2023-02-28T01:15:56;24.55;;;11.60;;
26191;SDS011;13935;55.672;37.764;2023-02-28T01:17:01;23.55;;;11.20;;
26191;SDS011;13935;55.672;37.764;2023-02-28T01:56:27;19.25;;;8.52;;
26191;SDS011;13935;55.672;37.764;2023-02-28T01:57:47;21.65;;;9.65;;
26191;SDS011;13935;55.672;37.764;2023-02-28T01:58:59;18.75;;;8.30;;
26191;SDS011;13935;55.672;37.764;2023-02-28T02:00:15;22.55;;;9.25;;
26191;SDS011;13935;55.672;37.764;2023-02-28T02:01:25;24.33;;;10.75;;
26191;SDS011;13935;55.672;37.764;2023-02-28T02:02:30;20.88;;;9.43;;
26191;SDS011;13935;55.672;37.764;2023-02-28T02:03:34;20.95;;;9.93;;
26191;SDS011;13935;55.672;37.764;2023-02-28T02:06:17;20.63;;;8.77;;
26191;SDS011;13935;55.672;37.764;2023-02-28T02:48:06;18.08;;;8.45;;
26191;SDS011;13935;55.672;37.764;2023-02-28T02:49:43;16.10;;;7.75;;
26191;SDS011;13935;55.672;37.764;2023-02-28T02:51:04;15.95;;;8.20;;
26191;SDS011;13935;55.672;37.764;2023-02-28T02:52:20;17.92;;;8.50;;
26191;SDS011;13935;55.672;37.764;2023-02-28T02:53:32;17.48;;;7.95;;
26191;SDS011;13935;55.672;37.764;2023-02-28T02:54:45;17.42;;;8.10;;
26191;SDS011;13935;55.672;37.764;2023-02-28T02:55:56;16.75;;;8.20;;
26191;SDS011;13935;55.672;37.764;2023-02-28T02:57:13;15.55;;;8.40;;
26191;SDS011;13935;55.672;37.764;2023-02-28T02:58:29;19.70;;;8.70;;
26191;SDS011;13935;55.672;37.764;2023-02-28T02:59:43;20.48;;;8.40;;
26191;SDS011;13935;55.672;37.764;2023-02-28T03:00:53;17.50;;;7.55;;
26191;SDS011;13935;55.672;37.764;2023-02-28T03:02:03;15.80;;;7.85;;
26191;SDS011;13935;55.672;37.764;2023-02-28T03:03:13;16.42;;;7.75;;
26191;SDS011;13935;55.672;37.764;2023-02-28T03:04:27;17.33;;;8.13;;
26191;SDS011;13935;55.672;37.764;2023-02-28T03:05:48;15.95;;;7.50;;
26191;SDS011;13935;55.672;37.764;2023-02-28T03:06:56;16.42;;;7.93;;
26191;SDS011;13935;55.672;37.764;2023-02-28T03:08:04;19.25;;;8.55;;
26191;SDS011;13935;55.672;37.764;2023-02-28T03:09:10;17.88;;;8.30;;
26191;SDS011;13935;55.672;37.764;2023-02-28T03:11:37;17.02;;;7.85;;
26191;SDS011;13935;55.672;37.764;2023-02-28T03:12:49;17.15;;;8.43;;
26191;SDS011;13935;55.672;37.764;2023-02-28T03:16:08;17.60;;;7.43;;
26191;SDS011;13935;55.672;37.764;2023-02-28T03:19:28;17.70;;;7.28;;
26191;SDS011;13935;55.672;37.764;2023-02-28T03:21:06;16.88;;;7.30;;
26191;SDS011;13935;55.672;37.764;2023-02-28T03:24:35;18.73;;;8.23;;
26191;SDS011;13935;55.672;37.764;2023-02-28T03:29:15;15.65;;;7.65;;
26191;SDS011;13935;55.672;37.764;2023-02-28T03:35:57;14.48;;;7.10;;
26191;SDS011;13935;55.672;37.764;2023-02-28T03:37:14;13.90;;;7.20;;
26191;SDS011;13935;55.672;37.764;2023-02-28T03:38:49;14.10;;;7.68;;
26191;SDS011;13935;55.672;37.764;2023-02-28T03:40:15;17.27;;;8.48;;
26191;SDS011;13935;55.672;37.764;2023-02-28T03:41:31;14.32;;;6.72;;
26191;SDS011;13935;55.672;37.764;2023-02-28T03:42:48;15.02;;;6.93;;
26191;SDS011;13935;55.672;37.764;2023-02-28T03:44:12;14.10;;;6.60;;
26191;SDS011;13935;55.672;37.764;2023-02-28T03:45:28;14.55;;;6.68;;
26191;SDS011;13935;55.672;37.764;2023-02-28T03:46:41;16.23;;;7.13;;
26191;SDS011;13935;55.672;37.764;2023-02-28T03:48:30;12.95;;;6.65;;
26191;SDS011;13935;55.672;37.764;2023-02-28T03:50:05;13.02;;;6.05;;
26191;SDS011;13935;55.672;37.764;2023-02-28T03:51:18;13.95;;;6.60;;
26191;SDS011;13935;55.672;37.764;2023-02-28T03:52:35;14.23;;;6.15;;
26191;SDS011;13935;55.672;37.764;2023-02-28T03:53:54;14.95;;;7.15;;
26191;SDS011;13935;55.672;37.764;2023-02-28T03:55:11;14.77;;;6.15;;
26191;SDS011;13935;55.672;37.764;2023-02-28T03:56:21;13.30;;;6.22;;
26191;SDS011;13935;55.672;37.764;2023-02-28T03:57:53;13.45;;;6.78;;
26191;SDS011;13935;55.672;37.764;2023-02-28T03:59:25;14.50;;;6.38;;
26191;SDS011;13935;55.672;37.764;2023-02-28T04:00:40;14.68;;;7.32;;
26191;SDS011;13935;55.672;37.764;2023-02-28T04:01:52;13.35;;;6.10;;
26191;SDS011;13935;55.672;37.764;2023-02-28T04:03:05;14.57;;;7.40;;
26191;SDS011;13935;55.672;37.764;2023-02-28T04:04:15;12.27;;;6.05;;
26191;SDS011;13935;55.672;37.764;2023-02-28T04:05:23;13.18;;;6.00;;
26191;SDS011;13935;55.672;37.764;2023-02-28T04:06:33;12.57;;;6.28;;
26191;SDS011;13935;55.672;37.764;2023-02-28T04:08:06;12.77;;;6.93;;
26191;SDS011;13935;55.672;37.764;2023-02-28T04:09:20;14.40;;;6.85;;
26191;SDS011;13935;55.672;37.764;2023-02-28T04:10:25;14.38;;;6.47;;
26191;SDS011;13935;55.672;37.764;2023-02-28T04:11:44;13.30;;;6.65;;
26191;SDS011;13935;55.672;37.764;2023-02-28T04:13:03;13.30;;;6.07;;
26191;SDS011;13935;55.672;37.764;2023-02-28T04:14:10;12.45;;;6.07;;
26191;SDS011;13935;55.672;37.764;2023-02-28T04:15:21;15.05;;;6.50;;
26191;SDS011;13935;55.672;37.764;2023-02-28T04:16:29;13.18;;;6.13;;
26191;SDS011;13935;55.672;37.764;2023-02-28T04:17:42;12.13;;;5.28;;
26191;SDS011;13935;55.672;37.764;2023-02-28T04:18:52;11.43;;;5.78;;
26191;SDS011;13935;55.672;37.764;2023-02-28T04:19:59;14.15;;;5.90;;
26191;SDS011;13935;55.672;37.764;2023-02-28T04:21:06;13.90;;;6.55;;
26191;SDS011;13935;55.672;37.764;2023-02-28T04:22:10;12.05;;;5.90;;
26191;SDS011;13935;55.672;37.764;2023-02-28T04:26:57;11.65;;;5.15;;
26191;SDS011;13935;55.672;37.764;2023-02-28T04:28:05;12.68;;;5.45;;
26191;SDS011;13935;55.672;37.764;2023-02-28T04:29:11;13.00;;;5.53;;
26191;SDS011;13935;55.672;37.764;2023-02-28T04:30:17;11.00;;;5.70;;
26191;SDS011;13935;55.672;37.764;2023-02-28T04:31:22;11.70;;;5.53;;
26191;SDS011;13935;55.672;37.764;2023-02-28T04:32:34;13.60;;;5.88;;
26191;SDS011;13935;55.672;37.764;2023-02-28T04:33:41;16.95;;;7.03;;
26191;SDS011;13935;55.672;37.764;2023-02-28T04:34:49;13.05;;;6.05;;
26191;SDS011;13935;55.672;37.764;2023-02-28T04:36:06;13.55;;;5.80;;
26191;SDS011;13935;55.672;37.764;2023-02-28T04:37:18;12.15;;;6.10;;
26191;SDS011;13935;55.672;37.764;2023-02-28T04:38:22;14.32;;;6.05;;
26191;SDS011;13935;55.672;37.764;2023-02-28T04:39:30;11.35;;;5.97;;
26191;SDS011;13935;55.672;37.764;2023-02-28T04:40:43;11.88;;;5.82;;
26191;SDS011;13935;55.672;37.764;2023-02-28T04:42:11;15.40;;;6.15;;
26191;SDS011;13935;55.672;37.764;2023-02-28T04:43:23;12.20;;;6.07;;
26191;SDS011;13935;55.672;37.764;2023-02-28T04:44:29;13.38;;;5.90;;
26191;SDS011;13935;55.672;37.764;2023-02-28T04:45:35;12.80;;;5.50;;
26191;SDS011;13935;55.672;37.764;2023-02-28T04:46:38;13.70;;;6.10;;
26191;SDS011;13935;55.672;37.764;2023-02-28T04:47:43;12.07;;;6.18;;
26191;SDS011;13935;55.672;37.764;2023-02-28T04:48:46;11.85;;;6.78;;
26191;SDS011;13935;55.672;37.764;2023-02-28T04:49:48;12.90;;;6.13;;
26191;SDS011;13935;55.672;37.764;2023-02-28T04:50:52;11.60;;;5.50;;
26191;SDS011;13935;55.672;37.764;2023-02-28T04:51:55;16.30;;;5.97;;
26191;SDS011;13935;55.672;37.764;2023-02-28T04:52:58;12.77;;;5.97;;
26191;SDS011;13935;55.672;37.764;2023-02-28T04:54:06;13.18;;;6.25;;
26191;SDS011;13935;55.672;37.764;2023-02-28T04:55:09;13.45;;;6.13;;
26191;SDS011;13935;55.672;37.764;2023-02-28T04:56:14;12.75;;;5.82;;
26191;SDS011;13935;55.672;37.764;2023-02-28T04:57:18;12.30;;;5.63;;
26191;SDS011;13935;55.672;37.764;2023-02-28T04:58:20;11.65;;;5.93;;
26191;SDS011;13935;55.672;37.764;2023-02-28T04:59:25;13.07;;;6.70;;
26191;SDS011;13935;55.672;37.764;2023-02-28T05:00:28;12.52;;;5.68;;
26191;SDS011;13935;55.672;37.764;2023-02-28T05:01:31;12.35;;;5.20;;
26191;SDS011;13935;55.672;37.764;2023-02-28T05:02:35;13.52;;;5.85;;
26191;SDS011;13935;55.672;37.764;2023-02-28T05:03:38;10.75;;;5.88;;
26191;SDS011;13935;55.672;37.764;2023-02-28T05:04:47;11.90;;;5.55;;
26191;SDS011;13935;55.672;37.764;2023-02-28T05:05:52;11.23;;;5.45;;
26191;SDS011;13935;55.672;37.764;2023-02-28T05:06:54;12.00;;;5.10;;
26191;SDS011;13935;55.672;37.764;2023-02-28T05:07:58;12.65;;;5.88;;
26191;SDS011;13935;55.672;37.764;2023-02-28T05:09:03;13.90;;;5.60;;
26191;SDS011;13935;55.672;37.764;2023-02-28T05:10:06;10.90;;;5.53;;
26191;SDS011;13935;55.672;37.764;2023-02-28T05:11:20;11.90;;;5.45;;
26191;SDS011;13935;55.672;37.764;2023-02-28T05:12:42;12.95;;;5.65;;
26191;SDS011;13935;55.672;37.764;2023-02-28T05:13:45;10.95;;;5.30;;
26191;SDS011;13935;55.672;37.764;2023-02-28T05:14:49;9.88;;;5.10;;
26191;SDS011;13935;55.672;37.764;2023-02-28T05:15:53;11.82;;;5.28;;
26191;SDS011;13935;55.672;37.764;2023-02-28T05:16:58;12.10;;;5.35;;
26191;SDS011;13935;55.672;37.764;2023-02-28T05:18:01;11.35;;;5.15;;
26191;SDS011;13935;55.672;37.764;2023-02-28T05:19:05;10.63;;;5.40;;
26191;SDS011;13935;55.672;37.764;2023-02-28T05:20:12;10.85;;;5.28;;
26191;SDS011;13935;55.672;37.764;2023-02-28T05:21:31;10.55;;;5.35;;
26191;SDS011;13935;55.672;37.764;2023-02-28T05:22:49;20.85;;;8.73;;
26191;SDS011;13935;55.672;37.764;2023-02-28T05:23:57;14.02;;;6.00;;
26191;SDS011;13935;55.672;37.764;2023-02-28T05:25:06;11.20;;;5.38;;
26191;SDS011;13935;55.672;37.764;2023-02-28T05:26:20;10.13;;;5.28;;
26191;SDS011;13935;55.672;37.764;2023-02-28T05:27:24;11.45;;;5.97;;
26191;SDS011;13935;55.672;37.764;2023-02-28T05:28:32;10.52;;;5.35;;
26191;SDS011;13935;55.672;37.764;2023-02-28T05:29:51;10.65;;;4.90;;
26191;SDS011;13935;55.672;37.764;2023-02-28T05:31:00;10.32;;;5.05;;
26191;SDS011;13935;55.672;37.764;2023-02-28T05:32:05;10.88;;;5.18;;
26191;SDS011;13935;55.672;37.764;2023-02-28T05:34:23;11.23;;;5.10;;
26191;SDS011;13935;55.672;37.764;2023-02-28T05:35:31;13.93;;;5.07;;
26191;SDS011;13935;55.672;37.764;2023-02-28T05:36:37;11.20;;;5.18;;
26191;SDS011;13935;55.672;37.764;2023-02-28T05:37:52;11.20;;;5.60;;
26191;SDS011;13935;55.672;37.764;2023-02-28T05:39:00;9.20;;;4.80;;
26191;SDS011;13935;55.672;37.764;2023-02-28T05:40:09;10.77;;;5.32;;
26191;SDS011;13935;55.672;37.764;2023-02-28T05:41:17;9.88;;;5.60;;
26191;SDS011;13935;55.672;37.764;2023-02-28T05:42:24;10.20;;;5.25;;
26191;SDS011;13935;55.672;37.764;2023-02-28T05:43:46;12.60;;;5.25;;
26191;SDS011;13935;55.672;37.764;2023-02-28T05:44:50;10.20;;;5.25;;
26191;SDS011;13935;55.672;37.764;2023-02-28T05:45:56;10.05;;;5.40;;
26191;SDS011;13935;55.672;37.764;2023-02-28T05:47:01;12.57;;;5.40;;
26191;SDS011;13935;55.672;37.764;2023-02-28T05:48:09;11.77;;;5.10;;
26191;SDS011;13935;55.672;37.764;2023-02-28T05:49:16;13.52;;;5.40;;
26191;SDS011;13935;55.672;37.764;2023-02-28T05:50:21;11.50;;;5.07;;
26191;SDS011;13935;55.672;37.764;2023-02-28T05:52:51;10.88;;;5.30;;
26191;SDS011;13935;55.672;37.764;2023-02-28T05:54:00;12.02;;;5.47;;
26191;SDS011;13935;55.672;37.764;2023-02-28T05:55:07;19.65;;;8.23;;
26191;SDS011;13935;55.672;37.764;2023-02-28T05:56:14;20.02;;;7.28;;
26191;SDS011;13935;55.672;37.764;2023-02-28T05:57:23;17.90;;;6.10;;
26191;SDS011;13935;55.672;37.764;2023-02-28T05:58:46;12.98;;;5.30;;
26191;SDS011;13935;55.672;37.764;2023-02-28T06:01:18;15.00;;;5.68;;
26191;SDS011;13935;55.672;37.764;2023-02-28T06:02:40;20.80;;;5.80;;
26191;SDS011;13935;55.672;37.764;2023-02-28T06:05:26;13.93;;;5.68;;
26191;SDS011;13935;55.672;37.764;2023-02-28T06:06:30;10.23;;;4.80;;
26191;SDS011;13935;55.672;37.764;2023-02-28T06:09:12;13.00;;;5.55;;
26191;SDS011;13935;55.672;37.764;2023-02-28T06:10:17;12.38;;;4.95;;
26191;SDS011;13935;55.672;37.764;2023-02-28T06:11:21;13.85;;;5.53;;
26191;SDS011;13935;55.672;37.764;2023-02-28T06:12:31;10.50;;;4.93;;
26191;SDS011;13935;55.672;37.764;2023-02-28T06:13:41;12.80;;;5.35;;
26191;SDS011;13935;55.672;37.764;2023-02-28T06:14:51;9.60;;;5.40;;
26191;SDS011;13935;55.672;37.764;2023-02-28T06:15:55;13.55;;;5.82;;
26191;SDS011;13935;55.672;37.764;2023-02-28T06:16:59;14.65;;;6.43;;
26191;SDS011;13935;55.672;37.764;2023-02-28T06:18:07;12.20;;;5.20;;
26191;SDS011;13935;55.672;37.764;2023-02-28T06:19:12;12.10;;;5.50;;
26191;SDS011;13935;55.672;37.764;2023-02-28T06:20:19;11.35;;;5.63;;
26191;SDS011;13935;55.672;37.764;2023-02-28T06:21:28;11.68;;;5.38;;
26191;SDS011;13935;55.672;37.764;2023-02-28T06:22:36;11.03;;;5.30;;
26191;SDS011;13935;55.672;37.764;2023-02-28T06:23:44;10.30;;;5.13;;
26191;SDS011;13935;55.672;37.764;2023-02-28T06:24:50;10.40;;;5.40;;
26191;SDS011;13935;55.672;37.764;2023-02-28T06:25:56;11.82;;;4.85;;
26191;SDS011;13935;55.672;37.764;2023-02-28T06:27:01;12.90;;;5.22;;
26191;SDS011;13935;55.672;37.764;2023-02-28T06:28:08;13.13;;;4.75;;
26191;SDS011;13935;55.672;37.764;2023-02-28T06:29:19;12.50;;;6.00;;
26191;SDS011;13935;55.672;37.764;2023-02-28T06:30:23;13.45;;;6.32;;
26191;SDS011;13935;55.672;37.764;2023-02-28T06:31:27;12.52;;;5.20;;
26191;SDS011;13935;55.672;37.764;2023-02-28T06:32:32;11.30;;;5.30;;
26191;SDS011;13935;55.672;37.764;2023-02-28T06:33:38;14.05;;;5.85;;
26191;SDS011;13935;55.672;37.764;2023-02-28T06:34:45;10.90;;;5.50;;
26191;SDS011;13935;55.672;37.764;2023-02-28T06:35:50;12.90;;;5.80;;
26191;SDS011;13935;55.672;37.764;2023-02-28T06:36:57;11.52;;;5.80;;
26191;SDS011;13935;55.672;37.764;2023-02-28T06:38:07;12.70;;;6.30;;
26191;SDS011;13935;55.672;37.764;2023-02-28T06:39:14;13.10;;;5.55;;
26191;SDS011;13935;55.672;37.764;2023-02-28T06:40:18;12.30;;;5.60;;
26191;SDS011;13935;55.672;37.764;2023-02-28T06:41:23;13.45;;;5.35;;
26191;SDS011;13935;55.672;37.764;2023-02-28T06:42:32;14.75;;;5.22;;
26191;SDS011;13935;55.672;37.764;2023-02-28T06:43:36;12.63;;;5.78;;
26191;SDS011;13935;55.672;37.764;2023-02-28T06:44:41;12.60;;;5.47;;
26191;SDS011;13935;55.672;37.764;2023-02-28T06:45:49;17.85;;;6.55;;
26191;SDS011;13935;55.672;37.764;2023-02-28T06:46:56;11.30;;;5.63;;
26191;SDS011;13935;55.672;37.764;2023-02-28T06:49:15;15.30;;;5.70;;
26191;SDS011;13935;55.672;37.764;2023-02-28T06:50:22;12.57;;;5.90;;
26191;SDS011;13935;55.672;37.764;2023-02-28T06:51:34;11.07;;;5.10;;
26191;SDS011;13935;55.672;37.764;2023-02-28T06:52:58;9.82;;;4.88;;
26191;SDS011;13935;55.672;37.764;2023-02-28T06:54:05;13.00;;;5.65;;
26191;SDS011;13935;55.672;37.764;2023-02-28T06:55:14;10.88;;;5.43;;
26191;SDS011;13935;55.672;37.764;2023-02-28T06:56:21;12.77;;;5.38;;
26191;SDS011;13935;55.672;37.764;2023-02-28T06:57:29;12.02;;;6.15;;
26191;SDS011;13935;55.672;37.764;2023-02-28T06:58:36;10.68;;;5.72;;
26191;SDS011;13935;55.672;37.764;2023-02-28T06:59:41;12.05;;;5.93;;
26191;SDS011;13935;55.672;37.764;2023-02-28T07:00:51;11.63;;;5.82;;
26191;SDS011;13935;55.672;37.764;2023-02-28T07:01:59;12.50;;;5.53;;
26191;SDS011;13935;55.672;37.764;2023-02-28T07:03:05;10.50;;;5.15;;
26191;SDS011;13935;55.672;37.764;2023-02-28T07:04:12;12.80;;;4.88;;
26191;SDS011;13935;55.672;37.764;2023-02-28T07:05:17;10.02;;;4.75;;
26191;SDS011;13935;55.672;37.764;2023-02-28T07:06:22;11.13;;;5.45;;
26191;SDS011;13935;55.672;37.764;2023-02-28T07:07:26;11.02;;;5.32;;
26191;SDS011;13935;55.672;37.764;2023-02-28T07:08:32;11.32;;;5.00;;
26191;SDS011;13935;55.672;37.764;2023-02-28T07:09:43;10.25;;;5.85;;
26191;SDS011;13935;55.672;37.764;2023-02-28T07:11:00;12.63;;;5.45;;
26191;SDS011;13935;55.672;37.764;2023-02-28T07:12:49;12.10;;;5.57;;
26191;SDS011;13935;55.672;37.764;2023-02-28T07:56:55;12.85;;;5.28;;
26191;SDS011;13935;55.672;37.764;2023-02-28T07:58:03;8.93;;;4.70;;
26191;SDS011;13935;55.672;37.764;2023-02-28T07:59:11;11.00;;;5.00;;
26191;SDS011;13935;55.672;37.764;2023-02-28T08:00:19;13.38;;;6.10;;
26191;SDS011;13935;55.672;37.764;2023-02-28T08:01:30;14.75;;;6.22;;
26191;SDS011;13935;55.672;37.764;2023-02-28T08:02:42;11.55;;;5.32;;
26191;SDS011;13935;55.672;37.764;2023-02-28T08:03:51;11.98;;;5.32;;
26191;SDS011;13935;55.672;37.764;2023-02-28T08:05:00;10.65;;;5.55;;
26191;SDS011;13935;55.672;37.764;2023-02-28T08:06:07;11.77;;;5.05;;
26191;SDS011;13935;55.672;37.764;2023-02-28T08:07:23;9.88;;;5.22;;
26191;SDS011;13935;55.672;37.764;2023-02-28T08:08:29;11.88;;;5.43;;
26191;SDS011;13935;55.672;37.764;2023-02-28T08:09:41;10.07;;;4.88;;
26191;SDS011;13935;55.672;37.764;2023-02-28T08:10:55;11.75;;;5.75;;
26191;SDS011;13935;55.672;37.764;2023-02-28T08:12:02;9.38;;;5.35;;
26191;SDS011;13935;55.672;37.764;2023-02-28T08:13:15;10.48;;;5.50;;
26191;SDS011;13935;55.672;37.764;2023-02-28T08:14:26;11.98;;;4.95;;
26191;SDS011;13935;55.672;37.764;2023-02-28T08:15:34;9.20;;;5.07;;
26191;SDS011;13935;55.672;37.764;2023-02-28T08:16:42;10.52;;;5.70;;
26191;SDS011;13935;55.672;37.764;2023-02-28T08:17:54;14.95;;;5.47;;
26191;SDS011;13935;55.672;37.764;2023-02-28T08:20:55;11.68;;;5.40;;
26191;SDS011;13935;55.672;37.764;2023-02-28T08:22:07;10.25;;;5.40;;
26191;SDS011;13935;55.672;37.764;2023-02-28T08:23:42;9.55;;;4.63;;
26191;SDS011;13935;55.672;37.764;2023-02-28T08:26:43;11.98;;;5.38;;
26191;SDS011;13935;55.672;37.764;2023-02-28T08:29:00;10.57;;;5.60;;
26191;SDS011;13935;55.672;37.764;2023-02-28T08:30:17;9.98;;;4.93;;
26191;SDS011;13935;55.672;37.764;2023-02-28T08:31:37;10.82;;;5.40;;
26191;SDS011;13935;55.672;37.764;2023-02-28T08:42:12;11.48;;;5.07;;
26191;SDS011;13935;55.672;37.764;2023-02-28T08:44:06;10.32;;;5.22;;
26191;SDS011;13935;55.672;37.764;2023-02-28T08:45:51;9.77;;;4.80;;
26191;SDS011;13935;55.672;37.764;2023-02-28T08:49:59;11.57;;;5.38;;
26191;SDS011;13935;55.672;37.764;2023-02-28T08:51:08;9.55;;;5.10;;
26191;SDS011;13935;55.672;37.764;2023-02-28T08:52:19;11.18;;;6.05;;
26191;SDS011;13935;55.672;37.764;2023-02-28T08:53:38;10.90;;;5.38;;
26191;SDS011;13935;55.672;37.764;2023-02-28T08:55:28;12.20;;;6.35;;
26191;SDS011;13935;55.672;37.764;2023-02-28T08:56:39;14.57;;;7.13;;
26191;SDS011;13935;55.672;37.764;2023-02-28T08:57:44;14.10;;;5.57;;
26191;SDS011;13935;55.672;37.764;2023-02-28T08:58:54;13.25;;;6.63;;
26191;SDS011;13935;55.672;37.764;2023-02-28T09:05:31;12.27;;;6.65;;
26191;SDS011;13935;55.672;37.764;2023-02-28T09:06:34;11.00;;;5.80;;
26191;SDS011;13935;55.672;37.764;2023-02-28T09:07:37;12.68;;;5.90;;
26191;SDS011;13935;55.672;37.764;2023-02-28T09:09:51;10.73;;;5.38;;
26191;SDS011;13935;55.672;37.764;2023-02-28T09:11:05;11.35;;;5.35;;
26191;SDS011;13935;55.672;37.764;2023-02-28T09:12:21;10.57;;;6.07;;
26191;SDS011;13935;55.672;37.764;2023-02-28T09:13:30;10.48;;;5.57;;
26191;SDS011;13935;55.672;37.764;2023-02-28T09:14:40;12.23;;;6.32;;
26191;SDS011;13935;55.672;37.764;2023-02-28T09:15:46;13.23;;;5.95;;
26191;SDS011;13935;55.672;37.764;2023-02-28T09:17:00;11.82;;;5.57;;
26191;SDS011;13935;55.672;37.764;2023-02-28T09:18:27;12.20;;;5.80;;
26191;SDS011;13935;55.672;37.764;2023-02-28T09:19:37;10.20;;;5.28;;
26191;SDS011;13935;55.672;37.764;2023-02-28T09:20:54;10.52;;;5.43;;
26191;SDS011;13935;55.672;37.764;2023-02-28T09:22:04;11.18;;;5.80;;
26191;SDS011;13935;55.672;37.764;2023-02-28T09:23:14;12.65;;;6.68;;
26191;SDS011;13935;55.672;37.764;2023-02-28T09:24:24;13.98;;;5.63;;
26191;SDS011;13935;55.672;37.764;2023-02-28T09:25:53;13.75;;;5.85;;
26191;SDS011;13935;55.672;37.764;2023-02-28T09:27:10;13.20;;;5.72;;
26191;SDS011;13935;55.672;37.764;2023-02-28T09:28:26;10.02;;;5.72;;
26191;SDS011;13935;55.672;37.764;2023-02-28T09:29:36;12.20;;;6.25;;
26191;SDS011;13935;55.672;37.764;2023-02-28T09:30:46;15.75;;;8.40;;
26191;SDS011;13935;55.672;37.764;2023-02-28T09:31:54;12.95;;;5.95;;
26191;SDS011;13935;55.672;37.764;2023-02-28T09:33:04;14.20;;;5.70;;
26191;SDS011;13935;55.672;37.764;2023-02-28T09:42:41;10.82;;;5.68;;
26191;SDS011;13935;55.672;37.764;2023-02-28T09:43:55;14.90;;;5.32;;
26191;SDS011;13935;55.672;37.764;2023-02-28T09:45:24;13.73;;;6.15;;
26191;SDS011;13935;55.672;37.764;2023-02-28T09:46:42;12.57;;;6.40;;
26191;SDS011;13935;55.672;37.764;2023-02-28T09:47:50;10.73;;;5.50;;
26191;SDS011;13935;55.672;37.764;2023-02-28T09:49:00;9.75;;;5.63;;
26191;SDS011;13935;55.672;37.764;2023-02-28T09:50:23;12.93;;;6.30;;
26191;SDS011;13935;55.672;37.764;2023-02-28T09:51:47;11.70;;;5.97;;
26191;SDS011;13935;55.672;37.764;2023-02-28T09:52:56;12.10;;;5.97;;
26191;SDS011;13935;55.672;37.764;2023-02-28T09:54:05;10.95;;;5.95;;
26191;SDS011;13935;55.672;37.764;2023-02-28T09:55:30;11.00;;;5.40;;
26191;SDS011;13935;55.672;37.764;2023-02-28T10:01:39;8.40;;;4.88;;
26191;SDS011;13935;55.672;37.764;2023-02-28T10:11:03;9.93;;;4.38;;
26191;SDS011;13935;55.672;37.764;2023-02-28T10:12:12;9.98;;;4.57;;
26191;SDS011;13935;55.672;37.764;2023-02-28T10:13:35;10.77;;;5.00;;
26191;SDS011;13935;55.672;37.764;2023-02-28T10:14:46;10.77;;;5.35;;
26191;SDS011;13935;55.672;37.764;2023-02-28T10:15:58;11.25;;;5.43;;
26191;SDS011;13935;55.672;37.764;2023-02-28T10:17:16;10.23;;;5.05;;
26191;SDS011;13935;55.672;37.764;2023-02-28T10:20:49;10.65;;;4.90;;
26191;SDS011;13935;55.672;37.764;2023-02-28T10:21:59;10.60;;;5.15;;
26191;SDS011;13935;55.672;37.764;2023-02-28T10:23:25;9.43;;;4.88;;
26191;SDS011;13935;55.672;37.764;2023-02-28T10:24:52;9.02;;;5.05;;
26191;SDS011;13935;55.672;37.764;2023-02-28T10:27:19;11.75;;;5.97;;
26191;SDS011;13935;55.672;37.764;2023-02-28T10:45:29;10.77;;;5.85;;
26191;SDS011;13935;55.672;37.764;2023-02-28T10:46:57;10.15;;;4.97;;
26191;SDS011;13935;55.672;37.764;2023-02-28T10:48:57;10.85;;;4.93;;
26191;SDS011;13935;55.672;37.764;2023-02-28T10:50:37;11.35;;;5.47;;
26191;SDS011;13935;55.672;37.764;2023-02-28T10:55:13;11.93;;;6.13;;
26191;SDS011;13935;55.672;37.764;2023-02-28T10:57:18;12.50;;;5.82;;
26191;SDS011;13935;55.672;37.764;2023-02-28T11:00:35;11.48;;;5.88;;
26191;SDS011;13935;55.672;37.764;2023-02-28T11:01:59;11.88;;;5.80;;
26191;SDS011;13935;55.672;37.764;2023-02-28T12:35:37;12.43;;;6.00;;
26191;SDS011;13935;55.672;37.764;2023-02-28T12:36:56;12.40;;;6.05;;
26191;SDS011;13935;55.672;37.764;2023-02-28T12:40:19;11.73;;;6.15;;
26191;SDS011;13935;55.672;37.764;2023-02-28T12:41:56;12.97;;;6.67;;
26191;SDS011;13935;55.672;37.764;2023-02-28T12:44:48;15.65;;;7.55;;
26191;SDS011;13935;55.672;37.764;2023-02-28T12:47:26;16.00;;;6.97;;
26191;SDS011;13935;55.672;37.764;2023-02-28T12:50:17;15.55;;;6.47;;
26191;SDS011;13935;55.672;37.764;2023-02-28T12:57:15;12.23;;;6.35;;
26191;SDS011;13935;55.672;37.764;2023-02-28T12:58:43;14.30;;;5.78;;
26191;SDS011;13935;55.672;37.764;2023-02-28T12:59:59;14.15;;;7.05;;
26191;SDS011;13935;55.672;37.764;2023-02-28T13:04:59;13.25;;;6.68;;
26191;SDS011;13935;55.672;37.764;2023-02-28T13:06:34;13.63;;;7.10;;
26191;SDS011;13935;55.672;37.764;2023-02-28T13:09:54;13.07;;;6.63;;
26191;SDS011;13935;55.672;37.764;2023-02-28T13:11:06;15.55;;;7.10;;
26191;SDS011;13935;55.672;37.764;2023-02-28T13:12:24;14.45;;;6.78;;
26191;SDS011;13935;55.672;37.764;2023-02-28T13:13:33;18.27;;;7.30;;
26191;SDS011;13935;55.672;37.764;2023-02-28T13:14:53;12.32;;;6.18;;
26191;SDS011;13935;55.672;37.764;2023-02-28T13:16:31;11.70;;;5.88;;
26191;SDS011;13935;55.672;37.764;2023-02-28T13:18:04;10.95;;;6.05;;
26191;SDS011;13935;55.672;37.764;2023-02-28T13:19:16;13.32;;;6.72;;
26191;SDS011;13935;55.672;37.764;2023-02-28T13:20:34;16.17;;;7.00;;
26191;SDS011;13935;55.672;37.764;2023-02-28T13:21:54;10.68;;;6.20;;
26191;SDS011;13935;55.672;37.764;2023-02-28T13:24:56;10.25;;;6.05;;
26191;SDS011;13935;55.672;37.764;2023-02-28T13:26:04;10.05;;;6.00;;
26191;SDS011;13935;55.672;37.764;2023-02-28T13:29:59;13.38;;;6.35;;
26191;SDS011;13935;55.672;37.764;2023-02-28T13:31:16;10.23;;;5.40;;
26191;SDS011;13935;55.672;37.764;2023-02-28T13:32:30;12.00;;;6.00;;
26191;SDS011;13935;55.672;37.764;2023-02-28T13:38:32;10.77;;;6.32;;
26191;SDS011;13935;55.672;37.764;2023-02-28T13:40:41;11.77;;;6.03;;
26191;SDS011;13935;55.672;37.764;2023-02-28T13:41:46;10.75;;;6.38;;
26191;SDS011;13935;55.672;37.764;2023-02-28T13:42:49;10.75;;;5.80;;
26191;SDS011;13935;55.672;37.764;2023-02-28T13:44:11;9.85;;;5.72;;
26191;SDS011;13935;55.672;37.764;2023-02-28T13:45:25;10.60;;;5.72;;
26191;SDS011;13935;55.672;37.764;2023-02-28T13:48:01;11.43;;;6.20;;
26191;SDS011;13935;55.672;37.764;2023-02-28T13:50:34;12.45;;;6.57;;
26191;SDS011;13935;55.672;37.764;2023-02-28T13:51:43;11.75;;;6.75;;
26191;SDS011;13935;55.672;37.764;2023-02-28T13:52:54;11.75;;;6.40;;